createdAt,value
2018-05-02T00:00:46.039Z,1.85
2018-05-02T00:03:14.294Z,1.50
2018-05-02T00:05:41.763Z,1.50
2018-05-02T00:08:09.239Z,1.62
2018-05-02T00:10:37.495Z,1.40
2018-05-02T00:13:04.948Z,1.70
2018-05-02T00:15:32.423Z,1.70
2018-05-02T00:18:00.691Z,1.55
2018-05-02T00:23:01.967Z,1.70
2018-05-02T00:25:30.187Z,1.50
2018-05-02T00:27:57.637Z,1.55
2018-05-02T00:30:25.106Z,1.58
2018-05-02T00:32:52.556Z,1.62
2018-05-02T00:35:19.992Z,1.83
2018-05-02T00:37:47.447Z,1.50
2018-05-02T00:40:14.925Z,1.10
2018-05-02T00:42:42.417Z,1.50
2018-05-02T00:45:09.876Z,1.35
2018-05-02T00:47:37.344Z,1.83
2018-05-02T00:50:05.588Z,1.73
2018-05-02T00:52:33.064Z,1.80
2018-05-02T00:55:00.515Z,1.67
2018-05-02T00:57:27.992Z,1.60
2018-05-02T00:59:55.468Z,1.70
2018-05-02T01:02:23.691Z,1.77
2018-05-02T01:04:51.156Z,1.77
2018-05-02T01:07:18.621Z,1.52
2018-05-02T01:09:46.076Z,1.65
2018-05-02T01:12:13.524Z,2.00
2018-05-02T01:14:40.968Z,1.75
2018-05-02T01:17:08.425Z,1.55
2018-05-02T01:19:35.895Z,1.65
2018-05-02T01:22:03.365Z,1.45
2018-05-02T01:24:30.829Z,1.35
2018-05-02T01:26:58.302Z,1.50
2018-05-02T01:29:26.797Z,1.60
2018-05-02T01:31:54.287Z,1.75
2018-05-02T01:34:21.751Z,1.80
2018-05-02T01:36:49.228Z,1.55
2018-05-02T01:39:16.683Z,1.75
2018-05-02T01:41:44.128Z,1.85
2018-05-02T01:44:11.603Z,1.62
2018-05-02T01:46:39.040Z,1.70
2018-05-02T01:49:18.121Z,1.83
2018-05-02T01:51:46.342Z,1.83
2018-05-02T01:54:13.812Z,1.80
2018-05-02T01:56:41.256Z,1.73
2018-05-02T01:59:08.701Z,2.05
2018-05-02T02:01:36.940Z,1.87
2018-05-02T02:04:05.171Z,1.73
2018-05-02T02:06:32.639Z,2.00
2018-05-02T02:09:00.093Z,1.90
2018-05-02T02:11:28.304Z,2.08
2018-05-02T02:13:56.534Z,1.70
2018-05-02T02:16:23.981Z,2.00
2018-05-02T02:18:51.447Z,2.03
2018-05-02T02:21:18.924Z,1.75
2018-05-02T02:23:46.389Z,1.90
2018-05-02T02:26:13.850Z,1.90
2018-05-02T02:28:41.459Z,1.62
2018-05-02T02:31:08.912Z,1.77
2018-05-02T02:33:36.353Z,2.08
2018-05-02T02:36:03.831Z,1.95
2018-05-02T02:38:31.283Z,1.87
2018-05-02T02:40:58.755Z,1.77
2018-05-02T02:43:26.246Z,1.90
2018-05-02T02:45:53.687Z,1.73
2018-05-02T02:48:21.139Z,1.92
2018-05-02T02:50:48.611Z,2.03
2018-05-02T02:53:16.077Z,2.17
2018-05-02T02:55:43.558Z,2.00
2018-05-02T02:58:11.764Z,1.85
2018-05-02T03:00:39.237Z,1.48
2018-05-02T03:03:06.711Z,1.98
2018-05-02T03:05:34.190Z,2.00
2018-05-02T03:08:01.660Z,1.55
2018-05-02T03:10:29.887Z,1.80
2018-05-02T03:12:57.344Z,1.85
2018-05-02T03:15:24.819Z,2.00
2018-05-02T03:17:52.262Z,1.90
2018-05-02T03:20:19.724Z,1.80
2018-05-02T03:22:47.173Z,2.05
2018-05-02T03:25:14.648Z,1.83
2018-05-02T03:27:42.091Z,2.00
2018-05-02T03:30:09.551Z,1.70
2018-05-02T03:32:37.001Z,1.73
2018-05-02T03:35:04.443Z,2.10
2018-05-02T03:37:31.895Z,2.00
2018-05-02T03:39:59.372Z,2.08
2018-05-02T03:42:26.835Z,2.20
2018-05-02T03:44:54.284Z,2.28
2018-05-02T03:47:21.740Z,1.70
2018-05-02T03:49:49.199Z,1.58
2018-05-02T03:52:16.664Z,2.00
2018-05-02T03:54:44.138Z,1.60
2018-05-02T03:57:11.614Z,1.92
2018-05-02T03:59:51.035Z,1.80
2018-05-02T04:02:30.424Z,1.95
2018-05-02T04:05:09.775Z,2.03
2018-05-02T04:07:37.232Z,1.73
2018-05-02T04:10:04.669Z,2.05
2018-05-02T04:12:32.128Z,1.70
2018-05-02T04:14:59.596Z,2.00
2018-05-02T04:17:27.039Z,2.22
2018-05-02T04:19:54.516Z,1.90
2018-05-02T04:22:21.991Z,1.60
2018-05-02T04:24:49.459Z,2.00
2018-05-02T04:27:16.900Z,1.95
2018-05-02T04:29:44.367Z,2.03
2018-05-02T04:32:12.572Z,1.87
2018-05-02T04:34:40.791Z,1.85
2018-05-02T04:37:08.235Z,1.98
2018-05-02T04:39:35.684Z,1.60
2018-05-02T04:42:03.129Z,1.80
2018-05-02T04:44:31.365Z,1.55
2018-05-02T04:46:58.826Z,1.70
2018-05-02T04:49:26.267Z,2.00
2018-05-02T04:51:53.715Z,2.00
2018-05-02T04:54:21.187Z,1.77
2018-05-02T04:56:48.648Z,1.70
2018-05-02T04:59:16.323Z,1.85
2018-05-02T05:01:43.800Z,1.80
2018-05-02T05:04:12.016Z,1.92
2018-05-02T05:06:39.492Z,1.90
2018-05-02T05:09:06.935Z,1.75
2018-05-02T05:11:34.391Z,1.90
2018-05-02T05:14:01.850Z,1.97
2018-05-02T05:16:29.297Z,1.80
2018-05-02T05:18:56.795Z,1.93
2018-05-02T05:21:24.267Z,1.90
2018-05-02T05:23:52.484Z,1.63
2018-05-02T05:26:19.944Z,2.03
2018-05-02T05:28:47.407Z,1.80
2018-05-02T05:31:14.882Z,1.73
2018-05-02T05:33:42.363Z,1.77
2018-05-02T05:36:09.824Z,1.70
2018-05-02T05:38:38.041Z,2.17
2018-05-02T05:41:05.523Z,1.83
2018-05-02T05:43:33.068Z,1.90
2018-05-02T05:46:00.483Z,1.65
2018-05-02T05:48:28.695Z,1.80
2018-05-02T05:50:56.136Z,2.03
2018-05-02T05:53:23.634Z,2.12
2018-05-02T05:55:51.120Z,1.80
2018-05-02T05:58:18.601Z,2.10
2018-05-02T06:00:46.875Z,2.72
2018-05-02T06:03:14.325Z,2.67
2018-05-02T06:05:42.560Z,2.40
2018-05-02T06:08:10.041Z,2.12
2018-05-02T06:10:37.508Z,2.58
2018-05-02T06:13:05.756Z,2.20
2018-05-02T06:15:33.231Z,1.92
2018-05-02T06:18:00.673Z,2.50
2018-05-02T06:20:28.128Z,2.20
2018-05-02T06:22:55.628Z,2.10
2018-05-02T06:25:23.861Z,2.00
2018-05-02T06:27:51.302Z,2.40
2018-05-02T06:30:18.743Z,2.00
2018-05-02T06:32:46.204Z,1.98
2018-05-02T06:35:13.676Z,2.30
2018-05-02T06:37:41.249Z,1.98
2018-05-02T06:40:08.643Z,2.05
2018-05-02T06:42:36.905Z,2.00
2018-05-02T06:45:04.344Z,2.30
2018-05-02T06:47:31.799Z,2.20
2018-05-02T06:49:59.251Z,2.70
2018-05-02T06:52:26.747Z,2.40
2018-05-02T06:54:54.968Z,1.90
2018-05-02T06:57:22.444Z,2.40
2018-05-02T06:59:49.921Z,2.53
2018-05-02T07:02:17.352Z,2.40
2018-05-02T07:04:44.833Z,1.83
2018-05-02T07:07:12.392Z,1.87
2018-05-02T07:09:39.770Z,2.07
2018-05-02T07:12:08.013Z,1.90
2018-05-02T07:14:35.480Z,2.10
2018-05-02T07:17:02.964Z,2.40
2018-05-02T07:19:30.419Z,2.57
2018-05-02T07:21:58.687Z,2.63
2018-05-02T07:24:26.931Z,2.20
2018-05-02T07:26:54.401Z,2.20
2018-05-02T07:29:22.428Z,2.47
2018-05-02T07:31:50.802Z,1.90
2018-05-02T07:34:18.248Z,2.10
2018-05-02T07:36:45.717Z,2.10
2018-05-02T07:39:13.175Z,2.30
2018-05-02T07:41:40.650Z,2.20
2018-05-02T07:44:08.140Z,2.03
2018-05-02T07:46:35.612Z,1.97
2018-05-02T07:49:03.072Z,2.13
2018-05-02T07:51:31.284Z,2.17
2018-05-02T07:53:58.766Z,2.10
2018-05-02T07:56:26.270Z,1.70
2018-05-02T07:58:54.485Z,1.90
2018-05-02T08:01:22.701Z,2.27
2018-05-02T08:03:50.975Z,2.00
2018-05-02T08:06:19.196Z,1.80
2018-05-02T08:08:46.672Z,2.00
2018-05-02T08:11:14.156Z,1.80
2018-05-02T08:13:41.616Z,1.90
2018-05-02T08:16:09.076Z,2.20
2018-05-02T08:18:36.555Z,2.10
2018-05-02T08:21:04.787Z,1.80
2018-05-02T08:23:32.271Z,2.17
2018-05-02T08:26:00.489Z,1.80
2018-05-02T08:28:27.943Z,1.80
2018-05-02T08:30:55.426Z,2.00
2018-05-02T08:33:24.517Z,2.20
2018-05-02T08:35:52.004Z,2.10
2018-05-02T08:38:19.455Z,2.30
2018-05-02T08:40:46.927Z,2.13
2018-05-02T08:43:15.151Z,2.10
2018-05-02T08:45:42.609Z,1.90
2018-05-02T08:48:10.087Z,2.27
2018-05-02T08:50:37.538Z,1.70
2018-05-02T08:53:04.990Z,1.60
2018-05-02T08:55:32.439Z,2.03
2018-05-02T08:57:59.895Z,1.60
2018-05-02T09:00:27.383Z,2.00
2018-05-02T09:02:54.843Z,1.57
2018-05-02T09:05:22.340Z,1.87
2018-05-02T09:07:50.576Z,1.40
2018-05-02T09:10:18.049Z,1.73
2018-05-02T09:12:46.301Z,1.60
2018-05-02T09:15:13.748Z,1.93
2018-05-02T09:17:41.220Z,2.00
2018-05-02T09:20:08.724Z,1.67
2018-05-02T09:22:36.192Z,1.77
2018-05-02T09:25:03.669Z,1.40
2018-05-02T09:27:31.140Z,1.60
2018-05-02T09:29:58.582Z,1.37
2018-05-02T09:32:26.050Z,1.33
2018-05-02T09:34:53.500Z,1.33
2018-05-02T09:37:20.984Z,1.17
2018-05-02T09:39:48.437Z,1.47
2018-05-02T09:42:15.921Z,1.33
2018-05-02T09:44:44.136Z,1.70
2018-05-02T09:47:11.626Z,1.30
2018-05-02T09:49:39.108Z,1.20
2018-05-02T09:52:06.601Z,1.37
2018-05-02T09:54:34.781Z,1.40
2018-05-02T09:57:02.275Z,1.30
2018-05-02T09:59:30.239Z,1.10
2018-05-02T10:01:57.784Z,1.40
2018-05-02T10:04:25.234Z,1.30
2018-05-02T10:06:52.706Z,1.43
2018-05-02T10:09:20.171Z,1.40
2018-05-02T10:11:47.643Z,1.20
2018-05-02T10:14:15.083Z,1.00
2018-05-02T10:16:42.573Z,1.20
2018-05-02T10:19:10.811Z,1.10
2018-05-02T10:21:38.279Z,1.40
2018-05-02T10:24:05.739Z,1.00
2018-05-02T10:26:33.216Z,1.10
2018-05-02T10:29:00.725Z,1.03
2018-05-02T10:31:28.180Z,1.20
2018-05-02T10:33:55.628Z,1.20
2018-05-02T10:36:23.107Z,1.20
2018-05-02T10:38:51.348Z,1.13
2018-05-02T10:41:18.788Z,1.17
2018-05-02T10:43:47.013Z,1.30
2018-05-02T10:46:14.459Z,1.00
2018-05-02T10:48:41.907Z,1.10
2018-05-02T10:51:13.664Z,1.30
2018-05-02T10:53:41.119Z,1.00
2018-05-02T10:56:08.615Z,0.90
2018-05-02T10:58:36.076Z,1.07
2018-05-02T11:01:03.542Z,1.10
2018-05-02T11:03:31.019Z,1.20
2018-05-02T11:05:59.256Z,1.40
2018-05-02T11:08:26.792Z,0.87
2018-05-02T11:10:54.247Z,1.23
2018-05-02T11:13:21.992Z,1.33
2018-05-02T11:15:49.458Z,0.93
2018-05-02T11:18:16.931Z,1.10
2018-05-02T11:20:44.391Z,1.40
2018-05-02T11:23:11.859Z,1.00
2018-05-02T11:25:39.347Z,1.30
2018-05-02T11:28:06.827Z,1.40
2018-05-02T11:30:35.059Z,1.10
2018-05-02T11:33:02.547Z,1.20
2018-05-02T11:35:30.781Z,1.40
2018-05-02T11:37:58.264Z,1.47
2018-05-02T11:40:26.489Z,1.20
2018-05-02T11:42:53.980Z,1.33
2018-05-02T11:45:21.447Z,1.20
2018-05-02T11:47:48.915Z,1.07
2018-05-02T11:50:16.379Z,1.10
2018-05-02T11:52:43.882Z,1.10
2018-05-02T11:55:11.352Z,1.00
2018-05-02T11:57:38.819Z,0.97
2018-05-02T12:00:06.291Z,0.87
2018-05-02T12:02:33.820Z,1.20
2018-05-02T12:05:01.238Z,1.10
2018-05-02T12:07:29.475Z,0.80
2018-05-02T12:09:56.953Z,1.10
2018-05-02T12:12:24.425Z,0.90
2018-05-02T12:14:52.669Z,1.20
2018-05-02T12:17:20.139Z,1.07
2018-05-02T12:19:47.611Z,1.23
2018-05-02T12:22:15.850Z,1.50
2018-05-02T12:24:43.333Z,1.03
2018-05-02T12:27:10.812Z,1.10
2018-05-02T12:29:39.850Z,1.23
2018-05-02T12:32:07.321Z,0.90
2018-05-02T12:34:34.790Z,0.97
2018-05-02T12:37:02.285Z,1.40
2018-05-02T12:39:30.519Z,0.83
2018-05-02T12:41:57.995Z,0.90
2018-05-02T12:44:25.484Z,1.00
2018-05-02T12:46:52.956Z,1.60
2018-05-02T12:49:20.430Z,0.80
2018-05-02T12:51:47.903Z,0.90
2018-05-02T12:54:15.380Z,1.00
2018-05-02T12:56:42.850Z,0.87
2018-05-02T12:59:11.119Z,0.90
2018-05-02T13:01:39.359Z,1.00
2018-05-02T13:04:06.823Z,1.13
2018-05-02T13:06:34.308Z,1.27
2018-05-02T13:09:01.774Z,1.00
2018-05-02T13:11:30.027Z,0.93
2018-05-02T13:13:57.498Z,0.77
2018-05-02T13:16:24.981Z,0.83
2018-05-02T13:18:53.220Z,0.90
2018-05-02T13:21:20.713Z,0.77
2018-05-02T13:23:48.965Z,0.90
2018-05-02T13:26:16.464Z,1.07
2018-05-02T13:28:43.941Z,1.00
2018-05-02T13:31:11.407Z,0.90
2018-05-02T13:33:38.925Z,1.00
2018-05-02T13:36:06.403Z,0.93
2018-05-02T13:38:33.879Z,0.97
2018-05-02T13:41:01.378Z,1.10
2018-05-02T13:43:29.623Z,0.90
2018-05-02T13:45:57.095Z,1.00
2018-05-02T13:48:24.583Z,1.10
2018-05-02T13:50:52.056Z,1.00
2018-05-02T13:53:19.522Z,0.90
2018-05-02T13:55:46.996Z,1.20
2018-05-02T13:58:14.481Z,0.70
2018-05-02T14:00:41.948Z,0.90
2018-05-02T14:03:09.423Z,0.90
2018-05-02T14:05:37.659Z,1.10
2018-05-02T14:08:05.113Z,0.80
2018-05-02T14:10:32.606Z,0.80
2018-05-02T14:13:00.839Z,0.97
2018-05-02T14:15:28.308Z,0.90
2018-05-02T14:17:55.796Z,0.80
2018-05-02T14:20:24.020Z,1.00
2018-05-02T14:22:51.516Z,1.13
2018-05-02T14:25:18.989Z,0.90
2018-05-02T14:27:47.223Z,1.00
2018-05-02T14:30:14.692Z,1.10
2018-05-02T14:32:42.145Z,0.80
2018-05-02T14:35:09.624Z,1.10
2018-05-02T14:37:37.095Z,1.20
2018-05-02T14:40:05.345Z,1.07
2018-05-02T14:42:32.820Z,0.80
2018-05-02T14:45:01.037Z,0.80
2018-05-02T14:47:28.525Z,1.10
2018-05-02T14:49:56.008Z,0.97
2018-05-02T14:52:23.493Z,1.03
2018-05-02T14:54:50.960Z,1.40
2018-05-02T14:57:18.447Z,1.37
2018-05-02T14:59:45.966Z,1.57
2018-05-02T15:02:13.483Z,1.13
2018-05-02T15:04:40.885Z,1.20
2018-05-02T15:07:08.336Z,1.13
2018-05-02T15:09:35.815Z,1.30
2018-05-02T15:12:03.270Z,1.10
2018-05-02T15:14:30.726Z,1.30
2018-05-02T15:16:58.191Z,1.17
2018-05-02T15:19:25.640Z,1.40
2018-05-02T15:21:53.091Z,1.30
2018-05-02T15:24:20.601Z,1.20
2018-05-02T15:26:48.070Z,1.10
2018-05-02T15:29:16.587Z,1.47
2018-05-02T15:31:44.138Z,1.50
2018-05-02T15:34:11.607Z,1.10
2018-05-02T15:36:39.045Z,1.47
2018-05-02T15:39:06.553Z,1.03
2018-05-02T15:41:34.024Z,1.00
2018-05-02T15:44:01.503Z,1.50
2018-05-02T15:46:29.719Z,1.10
2018-05-02T15:48:57.199Z,1.37
2018-05-02T15:51:24.675Z,1.17
2018-05-02T15:53:52.160Z,1.27
2018-05-02T15:56:20.408Z,1.13
2018-05-02T15:58:47.855Z,1.00
2018-05-02T16:01:15.314Z,1.20
2018-05-02T16:03:42.785Z,1.00
2018-05-02T16:06:10.260Z,1.20
2018-05-02T16:08:38.508Z,1.20
2018-05-02T16:11:05.980Z,1.30
2018-05-02T16:13:34.223Z,1.37
2018-05-02T16:16:01.715Z,1.20
2018-05-02T16:18:29.188Z,1.10
2018-05-02T16:20:57.395Z,1.10
2018-05-02T16:23:24.862Z,1.00
2018-05-02T16:25:53.068Z,1.70
2018-05-02T16:28:20.527Z,0.93
2018-05-02T16:30:47.999Z,1.73
2018-05-02T16:33:16.237Z,1.03
2018-05-02T16:35:43.700Z,1.37
2018-05-02T16:38:11.152Z,1.10
2018-05-02T16:40:38.633Z,1.13
2018-05-02T16:43:06.116Z,1.10
2018-05-02T16:45:34.337Z,1.13
2018-05-02T16:48:01.791Z,1.20
2018-05-02T16:50:29.245Z,1.20
2018-05-02T16:52:56.738Z,1.30
2018-05-02T16:55:24.184Z,1.53
2018-05-02T16:57:51.700Z,1.27
2018-05-02T17:00:19.168Z,1.47
2018-05-02T17:02:46.618Z,1.40
2018-05-02T17:05:14.866Z,1.27
2018-05-02T17:07:43.107Z,1.40
2018-05-02T17:10:10.588Z,1.50
2018-05-02T17:12:38.857Z,1.10
2018-05-02T17:15:06.268Z,1.30
2018-05-02T17:17:33.748Z,1.10
2018-05-02T17:20:01.229Z,1.10
2018-05-02T17:22:28.712Z,1.30
2018-05-02T17:24:56.918Z,1.30
2018-05-02T17:27:24.368Z,1.07
2018-05-02T17:29:51.967Z,1.00
2018-05-02T17:32:19.404Z,1.17
2018-05-02T17:34:46.901Z,1.20
2018-05-02T17:37:15.141Z,1.60
2018-05-02T17:39:42.630Z,1.10
2018-05-02T17:42:10.113Z,1.03
2018-05-02T17:44:37.565Z,0.97
2018-05-02T17:47:05.037Z,1.10
2018-05-02T17:49:32.577Z,1.07
2018-05-02T17:52:00.792Z,0.90
2018-05-02T17:54:28.259Z,0.90
2018-05-02T17:56:55.722Z,1.07
2018-05-02T17:59:23.682Z,1.00
2018-05-02T18:01:51.181Z,0.90
2018-05-02T18:04:19.403Z,1.00
2018-05-02T18:06:46.868Z,1.17
2018-05-02T18:09:14.329Z,1.00
2018-05-02T18:11:41.816Z,1.00
2018-05-02T18:14:09.271Z,1.00
2018-05-02T18:16:36.708Z,0.93
2018-05-02T18:19:04.163Z,0.87
2018-05-02T18:21:31.666Z,0.80
2018-05-02T18:23:59.900Z,1.00
2018-05-02T18:26:27.348Z,0.87
2018-05-02T18:28:54.823Z,0.83
2018-05-02T18:31:22.304Z,1.03
2018-05-02T18:33:49.853Z,1.00
2018-05-02T18:36:17.315Z,0.87
2018-05-02T18:38:45.555Z,0.87
2018-05-02T18:41:13.019Z,0.97
2018-05-02T18:43:40.511Z,0.93
2018-05-02T18:46:08.727Z,1.00
2018-05-02T18:48:36.215Z,1.00
2018-05-02T18:51:03.685Z,1.10
2018-05-02T18:53:31.145Z,0.90
2018-05-02T18:55:58.627Z,0.80
2018-05-02T18:58:26.919Z,1.20
2018-05-02T19:00:54.343Z,0.73
2018-05-02T19:03:22.972Z,0.90
2018-05-02T19:05:50.435Z,0.83
2018-05-02T19:08:17.892Z,1.00
2018-05-02T19:10:45.359Z,0.80
2018-05-02T19:13:12.852Z,0.80
2018-05-02T19:15:40.319Z,1.13
2018-05-02T19:18:13.440Z,0.93
2018-05-02T19:20:40.911Z,1.10
2018-05-02T19:23:08.365Z,0.70
2018-05-02T19:28:45.769Z,0.90
2018-05-02T19:31:18.956Z,0.83
2018-05-02T19:33:52.416Z,0.80
2018-05-02T19:36:19.897Z,0.80
2018-05-02T19:38:47.379Z,1.00
2018-05-02T19:41:20.389Z,1.15
2018-05-02T19:43:53.492Z,0.73
2018-05-02T19:46:20.956Z,0.93
2018-05-02T19:48:48.435Z,0.80
2018-05-02T19:51:22.333Z,1.20
2018-05-02T19:53:50.493Z,0.90
2018-05-02T19:56:17.952Z,1.00
2018-05-02T19:58:45.447Z,1.40
2018-05-02T20:01:18.653Z,1.40
2018-05-02T20:03:46.880Z,1.95
2018-05-02T20:06:14.361Z,1.23
2018-05-02T20:08:47.556Z,1.20
2018-05-02T20:11:20.726Z,1.08
2018-05-02T20:13:53.920Z,1.45
2018-05-02T20:16:21.364Z,0.90
2018-05-02T20:18:48.844Z,0.90
2018-05-02T20:21:17.105Z,1.15
2018-05-02T20:23:44.583Z,1.15
2018-05-02T20:26:12.799Z,1.20
2018-05-02T20:28:40.269Z,0.98
2018-05-02T20:31:07.747Z,1.08
2018-05-02T20:33:35.212Z,0.80
2018-05-02T20:36:03.444Z,0.90
2018-05-02T20:38:30.922Z,1.02
2018-05-02T20:40:58.375Z,1.00
2018-05-02T20:43:25.862Z,0.95
2018-05-02T20:45:53.292Z,1.02
2018-05-02T20:48:20.766Z,1.00
2018-05-02T20:50:48.254Z,0.70
2018-05-02T20:53:16.484Z,1.77
2018-05-02T20:55:43.952Z,1.12
2018-05-02T20:58:11.425Z,1.12
2018-05-02T21:00:39.648Z,1.00
2018-05-02T21:03:07.141Z,1.10
2018-05-02T21:05:34.611Z,1.12
2018-05-02T21:08:02.100Z,1.00
2018-05-02T21:10:29.540Z,0.70
2018-05-02T21:12:57.771Z,1.00
2018-05-02T21:15:25.260Z,1.23
2018-05-02T21:17:52.738Z,1.30
2018-05-02T21:20:20.205Z,1.15
2018-05-02T21:22:47.691Z,1.20
2018-05-02T21:25:15.171Z,1.23
2018-05-02T21:27:42.647Z,1.15
2018-05-02T21:30:10.887Z,0.80
2018-05-02T21:32:38.357Z,1.00
2018-05-02T21:35:05.830Z,1.20
2018-05-02T21:37:33.315Z,1.30
2018-05-02T21:40:01.557Z,1.10
2018-05-02T21:42:29.052Z,0.98
2018-05-02T21:44:57.292Z,1.27
2018-05-02T21:47:24.753Z,1.12
2018-05-02T21:49:52.229Z,1.15
2018-05-02T21:52:20.460Z,0.93
2018-05-02T21:54:47.944Z,1.00
2018-05-02T21:57:15.430Z,1.15
2018-05-02T21:59:43.756Z,1.00
2018-05-02T22:02:11.913Z,1.20
2018-05-02T22:04:39.409Z,1.00
2018-05-02T22:07:06.863Z,1.23
2018-05-02T22:09:34.319Z,1.02
2018-05-02T22:12:01.780Z,1.10
2018-05-02T22:14:29.256Z,1.25
2018-05-02T22:16:57.496Z,1.30
2018-05-02T22:19:24.956Z,1.35
2018-05-02T22:21:52.453Z,1.40
2018-05-02T22:24:19.936Z,1.37
2018-05-02T22:26:47.403Z,1.45
2018-05-02T22:29:15.138Z,1.40
2018-05-02T22:31:42.630Z,1.23
2018-05-02T22:34:10.112Z,1.20
2018-05-02T22:36:37.560Z,1.52
2018-05-02T22:39:05.030Z,1.30
2018-05-02T22:41:32.516Z,1.40
2018-05-02T22:44:00.772Z,1.45
2018-05-02T22:46:28.245Z,1.35
2018-05-02T22:48:56.463Z,1.10
2018-05-02T22:51:23.939Z,1.40
2018-05-02T22:53:51.407Z,1.35
2018-05-02T22:56:18.907Z,1.65
2018-05-02T22:58:46.352Z,1.50
2018-05-02T23:01:14.594Z,1.55
2018-05-02T23:03:42.060Z,1.30
2018-05-02T23:06:09.535Z,1.27
2018-05-02T23:08:37.012Z,1.52
2018-05-02T23:11:05.246Z,1.25
2018-05-02T23:13:32.700Z,1.30
2018-05-02T23:16:00.192Z,1.23
2018-05-02T23:18:28.412Z,1.23
2018-05-02T23:20:55.867Z,1.55
2018-05-02T23:23:23.366Z,1.48
2018-05-02T23:25:50.841Z,1.50
2018-05-02T23:28:19.075Z,1.35
2018-05-02T23:30:46.563Z,1.65
2018-05-02T23:33:14.019Z,1.75
2018-05-02T23:35:41.507Z,1.70
2018-05-02T23:38:08.986Z,1.50
2018-05-02T23:40:36.439Z,1.87
2018-05-02T23:43:03.934Z,1.33
2018-05-02T23:45:31.429Z,1.42
2018-05-02T23:47:58.895Z,1.35
2018-05-02T23:50:26.414Z,1.50
2018-05-02T23:52:53.865Z,1.75
2018-05-02T23:55:21.333Z,1.37
2018-05-02T23:57:48.872Z,1.20
